Terminal Aerodrome Forecast
Issued by NWS Louisville, KY

Home | Current Version | Previous Version | Text Only | Print | Product List | Glossary On
Versions: 1 2 3 4 5 6 7 8 9 10 11 12 13 14 15
000
FTUS43 KLMK 290530
TAFSDF
TAF
KSDF 290530Z 2906/3012 05004KT P6SM SCT250
      TEMPO 2910/2913 6SM BR
     FM291600 06007KT P6SM SCT040 PROB30 2918/2922 VRB15G30KT 3SM
      TSRA BKN040CB
     FM300000 05006KT P6SM FEW050 SCT250=

USA.gov is the U.S. government's official web portal to all federal, state and local government web resources and services.